Time;durP1;ratioP1;P1;durP2;ratioP2;P2;SDS_P1;SDS_P2;PMS_P1;PMS_P2;Temp;Humidity;BMP_temperature;BMP_pressure;BME280_temperature;BME280_humidity;BME280_pressure;Samples;Min_cycle;Max_cycle;Signal;HPM_P1;HPM_P2
2024/02/21 00:01:37;;;;;;;12.57;9.13;;;;;;;8.19;100.00;101371.69;5050978;28;20633;-74
2024/02/21 00:04:04;;;;;;;19.67;10.10;;;;;;;8.24;100.00;101370.53;5054765;28;20202;-74
2024/02/21 00:06:30;;;;;;;13.50;8.90;;;;;;;8.22;100.00;101361.81;5053085;28;20209;-74
2024/02/21 00:08:58;;;;;;;15.67;9.13;;;;;;;8.24;100.00;101367.06;5060837;28;20228;-74
2024/02/21 00:11:25;;;;;;;16.17;8.90;;;;;;;8.22;100.00;101367.13;5047378;28;20241;-74
2024/02/21 00:13:51;;;;;;;17.00;8.00;;;;;;;8.24;100.00;101357.25;5053342;28;20208;-73
2024/02/21 00:16:18;;;;;;;16.03;8.90;;;;;;;8.23;100.00;101352.06;5051599;28;20206;-73
2024/02/21 00:18:44;;;;;;;17.13;8.87;;;;;;;8.22;100.00;101359.16;5052679;28;20202;-73
2024/02/21 00:21:14;;;;;;;17.07;8.23;;;;;;;8.26;100.00;101351.91;5056711;28;20221;-73
2024/02/21 00:23:41;;;;;;;20.63;10.60;;;;;;;8.25;100.00;101351.03;5046607;28;20235;-73
2024/02/21 00:26:09;;;;;;;24.00;10.57;;;;;;;8.31;100.00;101345.47;5047466;28;20210;-73
2024/02/21 00:28:35;;;;;;;19.23;10.03;;;;;;;8.28;100.00;101337.63;5052661;28;20233;-73
2024/02/21 00:31:02;;;;;;;23.93;10.23;;;;;;;8.28;100.00;101345.59;5056261;28;20201;-73
2024/02/21 00:33:28;;;;;;;18.57;9.17;;;;;;;8.28;100.00;101340.28;5055911;28;20231;-73
2024/02/21 00:35:55;;;;;;;16.73;8.63;;;;;;;8.29;100.00;101327.88;5053058;28;20206;-73
2024/02/21 00:38:21;;;;;;;20.17;10.33;;;;;;;8.26;100.00;101328.00;5056985;28;20204;-73
2024/02/21 00:40:47;;;;;;;24.17;10.63;;;;;;;8.23;100.00;101329.03;5054011;28;20213;-73
2024/02/21 00:43:15;;;;;;;18.37;10.00;;;;;;;8.23;100.00;101326.38;5057141;28;20228;-73
2024/02/21 00:45:42;;;;;;;19.90;10.83;;;;;;;8.24;100.00;101322.78;5049976;28;20206;-74
2024/02/21 00:48:08;;;;;;;24.00;12.00;;;;;;;8.22;100.00;101322.00;5051777;28;20229;-74
2024/02/21 00:50:35;;;;;;;24.10;9.37;;;;;;;8.21;100.00;101307.00;5052324;28;20198;-74
2024/02/21 00:53:01;;;;;;;20.33;10.07;;;;;;;8.20;100.00;101310.59;5050753;28;20218;-73
2024/02/21 00:55:27;;;;;;;20.67;10.73;;;;;;;8.18;100.00;101311.56;5050704;28;20197;-73
2024/02/21 00:57:54;;;;;;;18.77;10.47;;;;;;;8.19;100.00;101321.25;5054233;28;20193;-73
2024/02/21 01:00:22;;;;;;;19.87;10.03;;;;;;;8.23;100.00;101315.75;5048680;28;20201;-74
2024/02/21 01:02:48;;;;;;;22.03;10.33;;;;;;;8.24;100.00;101325.41;5050744;28;20218;-73
2024/02/21 01:05:15;;;;;;;21.63;9.87;;;;;;;8.27;100.00;101312.03;5052708;28;20607;-74
2024/02/21 01:07:41;;;;;;;20.97;10.40;;;;;;;8.26;100.00;101309.44;5048995;28;20681;-74
2024/02/21 01:10:09;;;;;;;20.87;10.97;;;;;;;8.24;100.00;101312.16;5052050;28;20205;-74
2024/02/21 01:12:35;;;;;;;24.23;11.10;;;;;;;8.24;100.00;101304.19;5049788;28;20221;-73
2024/02/21 01:15:02;;;;;;;17.43;9.80;;;;;;;8.22;100.00;101299.91;5049064;28;20208;-73
2024/02/21 01:17:30;;;;;;;21.47;9.90;;;;;;;8.18;100.00;101291.22;5047679;28;20217;-74
2024/02/21 01:19:56;;;;;;;23.83;9.97;;;;;;;8.17;100.00;101284.19;5050478;28;20204;-74
2024/02/21 01:22:22;;;;;;;20.73;10.87;;;;;;;8.18;100.00;101283.25;5041065;28;20233;-74
2024/02/21 01:24:49;;;;;;;15.97;9.70;;;;;;;8.19;100.00;101286.78;5036667;28;20491;-74
2024/02/21 01:27:16;;;;;;;16.90;9.90;;;;;;;8.19;100.00;101282.31;5037971;28;20221;-74
2024/02/21 01:29:42;;;;;;;20.37;10.33;;;;;;;8.20;100.00;101278.75;5042984;28;20303;-74
2024/02/21 01:32:09;;;;;;;17.97;9.23;;;;;;;8.19;100.00;101257.59;5039082;28;20233;-74
2024/02/21 01:34:37;;;;;;;15.77;9.60;;;;;;;8.20;100.00;101262.81;5044316;28;20205;-74
2024/02/21 01:37:04;;;;;;;19.33;10.37;;;;;;;8.22;100.00;101268.94;5040953;28;20205;-74
2024/02/21 01:39:31;;;;;;;21.83;9.83;;;;;;;8.22;100.00;101268.06;5046577;28;20209;-74
2024/02/21 01:41:58;;;;;;;19.13;10.70;;;;;;;8.21;100.00;101253.94;5043575;28;20712;-74
2024/02/21 01:44:24;;;;;;;20.50;10.77;;;;;;;8.21;100.00;101255.72;5040539;28;20408;-74
2024/02/21 01:46:51;;;;;;;22.10;10.00;;;;;;;8.23;100.00;101254.75;5046014;28;20205;-74
2024/02/21 01:49:18;;;;;;;23.93;10.33;;;;;;;8.21;100.00;101250.41;5043208;28;20218;-74
2024/02/21 01:51:46;;;;;;;19.73;10.93;;;;;;;8.24;100.00;101258.25;5038999;28;20233;-74
2024/02/21 01:54:15;;;;;;;16.57;9.77;;;;;;;8.23;100.00;101257.38;5043318;28;20263;-74
2024/02/21 01:56:42;;;;;;;23.83;10.67;;;;;;;8.24;100.00;101250.28;5041467;28;20213;-74
2024/02/21 01:59:09;;;;;;;27.00;12.10;;;;;;;8.22;100.00;101255.66;5038825;28;20217;-74
2024/02/21 02:01:35;;;;;;;25.07;11.00;;;;;;;8.21;100.00;101253.06;5041131;28;20231;-74
2024/02/21 02:04:05;;;;;;;26.83;10.53;;;;;;;8.21;100.00;101253.94;5039400;28;20210;-74
2024/02/21 02:06:31;;;;;;;21.00;11.70;;;;;;;8.24;100.00;101252.94;5042103;28;20275;-74
2024/02/21 02:08:59;;;;;;;18.03;10.77;;;;;;;8.22;100.00;101253.00;5041703;28;20244;-74
2024/02/21 02:11:26;;;;;;;21.53;10.70;;;;;;;8.22;100.00;101245.06;5045509;28;20248;-73
2024/02/21 02:13:52;;;;;;;21.70;10.97;;;;;;;8.23;100.00;101233.50;5042409;28;20201;-73
2024/02/21 02:16:18;;;;;;;21.50;11.60;;;;;;;8.23;100.00;101230.00;5042414;28;20197;-73
2024/02/21 02:18:45;;;;;;;16.10;10.67;;;;;;;8.23;100.00;101225.53;5042515;28;20212;-74
2024/02/21 02:21:22;;;;;;;21.57;11.30;;;;;;;8.22;100.00;101213.22;5042183;28;20217;-73
2024/02/21 02:23:50;;;;;;;23.53;11.40;;;;;;;8.24;100.00;101211.31;5035528;28;20210;-73
2024/02/21 02:26:16;;;;;;;18.97;11.10;;;;;;;8.23;100.00;101201.66;5041707;28;20673;-73
2024/02/21 02:28:43;;;;;;;20.17;11.67;;;;;;;8.23;100.00;101209.63;5045859;28;20720;-73
2024/02/21 02:31:09;;;;;;;24.30;12.30;;;;;;;8.24;100.00;101203.34;5037918;28;20194;-73
2024/02/21 02:33:36;;;;;;;19.87;11.83;;;;;;;8.24;100.00;101202.53;5039535;28;20221;-73
2024/02/21 02:36:02;;;;;;;28.33;13.50;;;;;;;8.22;100.00;101207.03;5040606;28;20198;-73
2024/02/21 02:38:29;;;;;;;20.93;12.00;;;;;;;8.24;100.00;101195.41;5045240;28;20319;-73
2024/02/21 02:40:57;;;;;;;29.47;16.30;;;;;;;8.25;100.00;101189.16;5040946;28;20206;-73
2024/02/21 02:43:23;;;;;;;26.43;15.10;;;;;;;8.26;100.00;101182.94;5041292;28;20229;-73
2024/02/21 02:45:50;;;;;;;24.37;12.77;;;;;;;8.28;100.00;101175.75;5042914;28;20201;-73
2024/02/21 02:48:16;;;;;;;22.80;12.10;;;;;;;8.26;100.00;101164.34;5043222;28;20208;-73
2024/02/21 02:50:42;;;;;;;20.77;11.57;;;;;;;8.32;100.00;101172.06;5041678;28;20208;-74
2024/02/21 02:53:09;;;;;;;21.50;11.03;;;;;;;8.28;100.00;101174.91;5042718;28;20221;-73
2024/02/21 02:55:36;;;;;;;16.47;11.90;;;;;;;8.25;100.00;101170.59;5043139;28;20216;-74
2024/02/21 02:58:04;;;;;;;24.60;13.43;;;;;;;8.23;100.00;101166.31;5039612;28;20723;-73
2024/02/21 03:00:30;;;;;;;19.63;12.17;;;;;;;8.23;100.00;101164.50;5041487;28;20289;-73
2024/02/21 03:02:57;;;;;;;20.97;11.67;;;;;;;8.26;100.00;101158.19;5042996;28;20221;-73
2024/02/21 03:05:23;;;;;;;21.73;12.03;;;;;;;8.28;100.00;101153.66;5039653;28;20590;-74
2024/02/21 03:07:50;;;;;;;23.33;12.43;;;;;;;8.28;100.00;101159.84;5043482;28;20201;-73
2024/02/21 03:10:17;;;;;;;20.00;11.33;;;;;;;8.27;99.66;101162.56;5042429;28;20222;-73
2024/02/21 03:12:43;;;;;;;24.77;12.70;;;;;;;8.26;100.00;101153.72;5045417;28;20327;-74
2024/02/21 03:15:11;;;;;;;22.23;11.97;;;;;;;8.28;99.57;101153.66;5044764;28;20209;-73
2024/02/21 03:17:38;;;;;;;22.87;11.83;;;;;;;8.29;98.87;101144.78;5044939;28;20252;-74
2024/02/21 03:20:08;;;;;;;19.90;11.63;;;;;;;8.30;99.44;101144.72;5045774;28;20297;-74
2024/02/21 03:22:35;;;;;;;20.40;12.57;;;;;;;8.29;98.39;101140.34;5048387;28;20245;-74
2024/02/21 03:25:01;;;;;;;20.20;12.07;;;;;;;8.27;98.74;101136.88;5043975;28;20207;-73
2024/02/21 03:27:28;;;;;;;23.73;12.33;;;;;;;8.30;98.90;101115.50;5046063;28;20206;-74
2024/02/21 03:29:54;;;;;;;21.47;12.90;;;;;;;8.29;98.42;101116.44;5042884;28;20599;-74
2024/02/21 03:32:22;;;;;;;21.70;12.37;;;;;;;8.29;98.43;101111.16;5045867;28;20229;-74
2024/02/21 03:34:49;;;;;;;22.13;11.87;;;;;;;8.29;98.63;101099.66;5040619;28;20213;-74
2024/02/21 03:37:15;;;;;;;20.23;11.90;;;;;;;8.27;97.34;101083.81;5046333;28;20390;-74
2024/02/21 03:39:42;;;;;;;22.60;11.63;;;;;;;8.28;97.38;101085.53;5045803;28;20590;-73
2024/02/21 03:42:08;;;;;;;20.27;11.80;;;;;;;8.27;96.94;101070.53;5051989;28;20218;-73
2024/02/21 03:44:35;;;;;;;19.27;11.33;;;;;;;8.27;96.47;101062.59;5046280;28;20701;-74
2024/02/21 03:47:02;;;;;;;18.43;11.00;;;;;;;8.27;96.67;101051.97;5049586;28;20231;-73
2024/02/21 03:49:29;;;;;;;20.17;11.27;;;;;;;8.28;95.79;101050.19;5044807;28;20722;-74
2024/02/21 03:51:56;;;;;;;21.17;12.63;;;;;;;8.28;95.99;101052.84;5049610;28;20240;-74
2024/02/21 03:54:23;;;;;;;17.90;10.67;;;;;;;8.27;95.72;101049.31;5045536;28;20209;-74
2024/02/21 03:56:49;;;;;;;22.97;12.03;;;;;;;8.27;95.43;101046.66;5046166;28;20202;-74
2024/02/21 03:59:16;;;;;;;20.07;12.43;;;;;;;8.28;95.10;101042.22;5046889;28;20206;-74
2024/02/21 04:01:43;;;;;;;19.80;11.13;;;;;;;8.27;94.77;101048.44;5047834;28;20221;-74
2024/02/21 04:04:09;;;;;;;19.87;11.87;;;;;;;8.23;94.92;101038.94;5040598;28;20210;-74
2024/02/21 04:06:37;;;;;;;18.10;10.67;;;;;;;8.23;94.31;101037.16;5043580;28;20214;-74
2024/02/21 04:09:04;;;;;;;17.40;10.43;;;;;;;8.24;94.19;101040.66;5044307;28;20260;-74
2024/02/21 04:11:30;;;;;;;17.57;11.57;;;;;;;8.24;94.62;101054.75;5045872;28;20233;-74
2024/02/21 04:13:57;;;;;;;21.83;11.73;;;;;;;8.27;93.65;101057.28;5049464;28;20211;-74
2024/02/21 04:16:23;;;;;;;21.50;11.13;;;;;;;8.28;94.17;101053.69;5043350;28;20209;-73
2024/02/21 04:18:50;;;;;;;16.90;11.10;;;;;;;8.28;93.40;101061.66;5043229;28;20567;-74
2024/02/21 04:21:17;;;;;;;19.83;11.10;;;;;;;8.27;94.22;101067.03;5043553;28;20661;-74
2024/02/21 04:23:45;;;;;;;18.77;11.70;;;;;;;8.28;94.31;101068.75;5041963;28;20216;-74
2024/02/21 04:26:11;;;;;;;16.53;10.87;;;;;;;8.28;93.81;101074.91;5046037;28;20204;-73
2024/02/21 04:28:38;;;;;;;18.53;10.83;;;;;;;8.33;94.57;101072.09;5045442;28;20205;-74
2024/02/21 04:31:04;;;;;;;21.50;11.77;;;;;;;8.35;94.15;101087.00;5043890;28;20206;-74
2024/02/21 04:33:31;;;;;;;20.03;10.80;;;;;;;8.30;94.12;101083.66;5046276;28;20210;-75
2024/02/21 04:35:58;;;;;;;16.73;11.00;;;;;;;8.33;94.69;101083.56;5041166;28;20201;-74
2024/02/21 04:38:25;;;;;;;19.63;10.17;;;;;;;8.34;93.76;101079.13;5045245;28;20210;-74
2024/02/21 04:40:52;;;;;;;15.80;9.63;;;;;;;8.33;94.54;101082.72;5043325;28;20217;-74
2024/02/21 04:43:19;;;;;;;23.13;11.30;;;;;;;8.31;94.07;101073.91;5045632;28;20229;-74
2024/02/21 04:45:45;;;;;;;19.30;10.57;;;;;;;8.35;94.28;101075.53;5048367;28;20214;-73
2024/02/21 04:48:12;;;;;;;18.03;10.40;;;;;;;8.34;93.85;101079.13;5052174;28;20209;-74
2024/02/21 04:50:38;;;;;;;18.37;11.50;;;;;;;8.33;94.51;101077.41;5045788;28;20226;-73
2024/02/21 04:53:05;;;;;;;21.20;11.30;;;;;;;8.32;94.10;101079.19;5045005;28;20229;-74
2024/02/21 04:55:31;;;;;;;17.10;10.53;;;;;;;8.33;93.70;101091.53;5047708;28;20205;-73
2024/02/21 04:58:00;;;;;;;18.13;10.40;;;;;;;8.36;93.72;101079.91;5049922;28;20197;-74
2024/02/21 05:00:26;;;;;;;18.50;11.53;;;;;;;8.36;94.11;101079.91;5051709;28;20294;-74
2024/02/21 05:02:53;;;;;;;22.73;10.23;;;;;;;8.37;93.46;101088.72;5048877;28;20567;-74
2024/02/21 05:05:19;;;;;;;14.33;10.07;;;;;;;8.35;94.30;101086.16;5046818;28;20208;-74
2024/02/21 05:07:46;;;;;;;19.73;11.10;;;;;;;8.35;94.62;101079.06;5038856;28;20212;-73
2024/02/21 05:10:12;;;;;;;16.57;10.57;;;;;;;8.36;94.65;101079.91;5040904;28;20233;-74
2024/02/21 05:12:39;;;;;;;20.00;11.60;;;;;;;8.40;93.82;101083.28;5044297;28;20619;-75
2024/02/21 05:15:08;;;;;;;15.43;9.90;;;;;;;8.37;94.47;101083.44;5043522;28;20216;-74
2024/02/21 05:17:34;;;;;;;14.60;10.30;;;;;;;8.37;94.20;101088.72;5045312;28;20213;-74
2024/02/21 05:20:01;;;;;;;19.00;10.50;;;;;;;8.36;94.68;101087.88;5046861;28;20201;-75
2024/02/21 05:22:27;;;;;;;17.47;10.67;;;;;;;8.36;94.62;101077.25;5044553;28;20964;-74
2024/02/21 05:24:54;;;;;;;20.57;10.77;;;;;;;8.40;94.18;101088.59;5054489;28;20673;-74
2024/02/21 05:27:20;;;;;;;14.37;11.90;;;;;;;8.39;94.45;101084.22;5044085;28;20210;-74
2024/02/21 05:29:48;;;;;;;18.83;11.50;;;;;;;8.40;94.18;101083.28;5047556;28;20324;-74
2024/02/21 05:32:16;;;;;;;19.73;9.87;;;;;;;8.40;93.85;101078.84;5046401;28;20589;-74
2024/02/21 05:34:42;;;;;;;19.57;10.67;;;;;;;8.38;94.64;101071.88;5041978;28;20681;-74
2024/02/21 05:37:09;;;;;;;18.50;11.23;;;;;;;8.39;94.29;101073.59;5046152;28;20211;-74
2024/02/21 05:39:35;;;;;;;16.43;11.20;;;;;;;8.39;94.16;101078.91;5041109;28;20445;-74
2024/02/21 05:42:02;;;;;;;17.77;10.80;;;;;;;8.34;94.46;101074.69;5044760;28;20229;-73
2024/02/21 05:44:28;;;;;;;23.87;12.93;;;;;;;8.36;94.37;101071.94;5046202;28;20217;-74
2024/02/21 05:46:55;;;;;;;18.57;11.07;;;;;;;8.35;94.35;101068.44;5045343;28;20443;-74
2024/02/21 05:49:23;;;;;;;19.90;10.93;;;;;;;8.37;94.20;101064.84;5040981;28;20731;-74
2024/02/21 05:51:49;;;;;;;17.83;10.50;;;;;;;8.38;94.35;101062.13;5040006;28;20221;-74
2024/02/21 05:54:16;;;;;;;19.97;10.33;;;;;;;8.35;95.01;101055.16;5040091;28;20209;-74
2024/02/21 05:56:45;;;;;;;20.00;10.67;;;;;;;8.32;94.37;101059.75;5043715;28;20233;-74
2024/02/21 05:59:11;;;;;;;17.93;10.70;;;;;;;8.31;94.64;101042.06;5045327;28;20208;-74
2024/02/21 06:01:38;;;;;;;16.43;10.23;;;;;;;8.31;95.20;101053.56;5038282;28;20610;-74
2024/02/21 06:04:05;;;;;;;20.00;10.73;;;;;;;8.35;94.70;101049.84;5047979;28;20205;-74
2024/02/21 06:06:33;;;;;;;16.97;10.47;;;;;;;8.34;94.89;101042.81;5038681;28;20303;-74
2024/02/21 06:09:00;;;;;;;14.23;10.03;;;;;;;8.33;94.89;101046.41;5050241;28;20224;-74
2024/02/21 06:11:26;;;;;;;18.07;11.20;;;;;;;8.35;95.11;101043.69;5036233;28;20233;-74
2024/02/21 06:13:53;;;;;;;17.00;10.70;;;;;;;8.33;94.59;101033.16;5054081;28;20209;-74
2024/02/21 06:16:19;;;;;;;17.10;10.00;;;;;;;8.35;95.11;101033.94;5052945;28;20210;-74
2024/02/21 06:18:45;;;;;;;17.17;9.83;;;;;;;8.32;94.92;101034.06;5052438;28;20202;-74
2024/02/21 06:21:12;;;;;;;15.07;9.83;;;;;;;8.33;94.54;101030.50;5050121;28;20205;-74
2024/02/21 06:23:40;;;;;;;15.40;10.03;;;;;;;8.35;95.08;101030.41;5048740;28;20687;-74
2024/02/21 06:26:06;;;;;;;14.40;9.60;;;;;;;8.33;94.88;101045.56;5052913;28;20213;-74
2024/02/21 06:28:33;;;;;;;19.37;9.97;;;;;;;8.30;94.77;101035.03;5049638;28;20217;-74
2024/02/21 06:30:59;;;;;;;16.17;10.20;;;;;;;8.29;94.63;101036.84;5053201;28;20240;-74
2024/02/21 06:33:26;;;;;;;15.73;10.30;;;;;;;8.30;94.93;101035.03;5051391;28;20233;-74
2024/02/21 06:35:53;;;;;;;19.60;10.47;;;;;;;8.29;95.23;101036.84;5054967;28;20296;-74
2024/02/21 06:38:20;;;;;;;16.97;10.27;;;;;;;8.28;95.26;101037.78;5047803;28;20237;-74
2024/02/21 06:40:51;;;;;;;13.93;10.23;;;;;;;8.24;95.08;101032.72;5051444;28;20201;-74
2024/02/21 06:43:19;;;;;;;12.90;8.53;;;;;;;8.24;95.34;101019.44;5049077;28;20307;-74
2024/02/21 06:45:50;;;;;;;13.80;10.53;;;;;;;8.24;95.06;101019.44;5053948;28;20575;-74
2024/02/21 06:48:17;;;;;;;15.40;9.43;;;;;;;8.20;95.26;101016.06;5052893;28;20627;-74
2024/02/21 06:50:43;;;;;;;19.23;11.50;;;;;;;8.20;95.06;101010.75;5052254;28;20228;-74
2024/02/21 06:53:10;;;;;;;15.43;10.03;;;;;;;8.19;94.68;101001.06;5054176;28;20224;-74
2024/02/21 06:55:36;;;;;;;12.90;9.67;;;;;;;8.17;95.19;101002.06;5055443;28;20209;-74
2024/02/21 06:58:04;;;;;;;19.70;10.23;;;;;;;8.19;95.12;101005.53;5056926;28;20201;-73
2024/02/21 07:00:31;;;;;;;16.27;10.47;;;;;;;8.19;94.80;101014.34;5057260;28;20216;-74
2024/02/21 07:02:58;;;;;;;13.97;9.03;;;;;;;8.19;95.15;101017.00;5056616;28;20248;-74
2024/02/21 07:05:24;;;;;;;13.77;9.00;;;;;;;8.19;95.46;101017.00;5054368;28;20205;-74
2024/02/21 07:07:51;;;;;;;17.30;9.87;;;;;;;8.16;95.45;101021.59;5050458;28;20206;-74
2024/02/21 07:10:17;;;;;;;12.53;8.67;;;;;;;8.17;95.10;101021.50;5055907;28;20296;-73
2024/02/21 07:12:44;;;;;;;13.77;9.10;;;;;;;8.15;95.90;101025.16;5052534;28;20231;-74
2024/02/21 07:15:11;;;;;;;14.93;9.30;;;;;;;8.17;96.44;101029.47;5053811;28;20225;-74
2024/02/21 07:17:38;;;;;;;25.73;15.37;;;;;;;8.18;95.99;101039.16;5053594;28;20303;-74
2024/02/21 07:20:05;;;;;;;16.73;10.00;;;;;;;8.17;96.12;101039.22;5055873;28;20197;-74
2024/02/21 07:22:32;;;;;;;20.07;9.10;;;;;;;8.19;95.92;101043.53;5049058;28;20236;-74
2024/02/21 07:24:58;;;;;;;12.23;9.07;;;;;;;8.19;95.57;101038.22;5054994;28;20209;-74
2024/02/21 07:27:27;;;;;;;15.40;9.77;;;;;;;8.20;95.80;101039.94;5050779;28;20214;-74
2024/02/21 07:29:54;;;;;;;14.40;8.70;;;;;;;8.22;95.75;101039.88;5053288;28;22138;-74
2024/02/21 07:32:22;;;;;;;12.13;8.33;;;;;;;8.20;95.94;101026.69;5052428;28;20549;-74
2024/02/21 07:34:48;;;;;;;13.47;8.30;;;;;;;8.23;96.47;101023.88;5051637;28;20209;-74
2024/02/21 07:37:15;;;;;;;16.33;8.30;;;;;;;8.22;95.98;101027.47;5052563;28;20208;-74
2024/02/21 07:39:42;;;;;;;16.47;8.30;;;;;;;8.23;96.18;101018.56;5052017;28;20206;-74
2024/02/21 07:42:08;;;;;;;10.87;8.47;;;;;;;8.27;95.41;101014.81;5052097;28;20784;-74
2024/02/21 07:44:35;;;;;;;18.37;8.77;;;;;;;8.26;96.11;101022.84;5051986;28;20219;-74
2024/02/21 07:47:02;;;;;;;15.83;9.37;;;;;;;8.23;96.22;101023.03;5055254;28;20264;-74
2024/02/21 07:49:30;;;;;;;17.67;9.77;;;;;;;8.26;96.12;101026.38;5054093;28;20205;-74
2024/02/21 07:51:56;;;;;;;16.97;9.97;;;;;;;8.26;95.76;101028.16;5051218;28;20249;-74
2024/02/21 07:54:22;;;;;;;15.53;9.40;;;;;;;8.30;96.28;101043.88;5052726;28;20205;-74
2024/02/21 07:56:49;;;;;;;16.67;9.13;;;;;;;8.30;95.52;101038.56;5051524;28;20214;-74
2024/02/21 07:59:15;;;;;;;15.47;9.60;;;;;;;8.30;96.24;101029.75;5054183;28;20613;-74
2024/02/21 08:01:42;;;;;;;17.57;9.83;;;;;;;8.32;95.87;101028.78;5052363;28;20214;-74
2024/02/21 08:04:08;;;;;;;20.50;9.77;;;;;;;8.33;96.21;101021.66;5051413;28;21186;-74
2024/02/21 08:06:36;;;;;;;17.10;9.37;;;;;;;8.33;95.60;101030.50;5050492;28;20209;-74
2024/02/21 08:09:03;;;;;;;17.07;10.70;;;;;;;8.32;95.84;101034.06;5055237;28;20209;-74
2024/02/21 08:11:29;;;;;;;14.23;9.43;;;;;;;8.34;95.87;101029.56;5052444;28;20233;-74
2024/02/21 08:13:57;;;;;;;16.33;9.23;;;;;;;8.34;95.45;101028.69;5055290;28;20205;-74
2024/02/21 08:16:23;;;;;;;12.23;8.93;;;;;;;8.37;95.54;101028.56;5051164;28;20268;-74
2024/02/21 08:18:49;;;;;;;14.53;9.67;;;;;;;8.39;95.41;101020.53;5048270;28;20208;-74
2024/02/21 08:21:16;;;;;;;15.53;8.53;;;;;;;8.40;94.61;101025.75;5043193;28;20468;-74
2024/02/21 08:23:44;;;;;;;21.90;10.83;;;;;;;8.43;94.82;101028.25;5048335;28;20198;-74
2024/02/21 08:26:11;;;;;;;17.70;10.10;;;;;;;8.46;94.96;101024.59;5047214;28;20205;-74
2024/02/21 08:28:37;;;;;;;14.30;9.40;;;;;;;8.46;94.79;101024.59;5052725;28;20213;-74
2024/02/21 08:31:04;;;;;;;18.60;9.17;;;;;;;8.50;95.23;101016.41;5049546;28;20233;-74
2024/02/21 08:33:31;;;;;;;13.73;8.23;;;;;;;8.50;94.19;101026.16;5050210;28;20604;-74
2024/02/21 08:35:57;;;;;;;14.03;7.50;;;;;;;8.51;93.71;101014.59;5043535;28;20217;-73
2024/02/21 08:38:24;;;;;;;12.10;7.37;;;;;;;8.51;94.01;101022.56;5044336;28;20213;-74
2024/02/21 08:40:52;;;;;;;13.73;8.63;;;;;;;8.54;93.60;101010.00;5050448;28;20743;-74
2024/02/21 08:43:19;;;;;;;13.67;8.40;;;;;;;8.57;92.98;101015.19;5047578;28;20224;-74
2024/02/21 08:45:45;;;;;;;12.10;7.53;;;;;;;8.61;92.49;101013.22;5049749;28;20214;-74
2024/02/21 08:48:12;;;;;;;11.87;6.87;;;;;;;8.64;92.46;101005.97;5048156;28;20206;-73
2024/02/21 08:50:38;;;;;;;11.60;6.80;;;;;;;8.67;91.80;101010.25;5046271;28;20237;-74
2024/02/21 08:53:05;;;;;;;12.97;6.23;;;;;;;8.68;91.03;100994.25;5052127;28;20386;-74
2024/02/21 08:55:31;;;;;;;11.70;6.37;;;;;;;8.74;90.88;100987.78;5049154;28;20681;-74
2024/02/21 08:57:59;;;;;;;11.00;6.03;;;;;;;8.76;89.64;100985.06;5051084;28;20206;-74
2024/02/21 09:00:27;;;;;;;11.80;6.37;;;;;;;8.80;89.47;100990.09;5048471;28;20207;-74
2024/02/21 09:02:55;;;;;;;11.10;6.07;;;;;;;8.84;89.45;100980.19;5034345;28;20253;-74
2024/02/21 09:05:22;;;;;;;10.50;5.60;;;;;;;8.88;87.92;100984.44;5041882;28;20613;-74
2024/02/21 09:07:48;;;;;;;10.03;5.80;;;;;;;8.88;86.87;100979.09;5053025;28;20210;-74
2024/02/21 09:10:15;;;;;;;13.03;6.23;;;;;;;8.90;86.51;100979.91;5051645;28;20258;-74
2024/02/21 09:12:41;;;;;;;8.07;5.40;;;;;;;8.94;84.83;100990.28;5047915;28;20566;-74
2024/02/21 09:15:10;;;;;;;9.90;5.57;;;;;;;8.92;84.21;100976.22;5045686;28;20208;-74
2024/02/21 09:17:37;;;;;;;10.63;5.67;;;;;;;8.94;84.12;100976.16;5047189;28;20205;-74
2024/02/21 09:20:04;;;;;;;11.60;6.00;;;;;;;8.95;84.48;100978.72;5050194;28;20673;-74
2024/02/21 09:22:31;;;;;;;11.80;5.57;;;;;;;8.98;84.11;100975.03;5047456;28;20230;-74
2024/02/21 09:24:57;;;;;;;8.50;5.50;;;;;;;9.03;84.71;100975.66;5045523;28;20213;-74
2024/02/21 09:27:24;;;;;;;8.73;4.73;;;;;;;9.05;84.28;100977.31;5045321;28;20212;-74
2024/02/21 09:29:50;;;;;;;7.73;4.87;;;;;;;9.11;82.59;100976.13;5039202;28;20575;-74
2024/02/21 09:32:19;;;;;;;8.77;5.03;;;;;;;9.10;82.96;100971.75;5052496;28;20229;-75
2024/02/21 09:34:45;;;;;;;6.40;4.60;;;;;;;9.11;82.55;100976.13;5049332;28;20222;-74
2024/02/21 09:37:11;;;;;;;8.20;4.40;;;;;;;9.15;82.76;100975.00;5050189;28;20212;-74
2024/02/21 09:39:38;;;;;;;8.33;4.73;;;;;;;9.21;82.59;100960.56;5051415;28;20209;-74
2024/02/21 09:42:07;;;;;;;6.50;4.27;;;;;;;9.25;81.37;100962.97;5045949;28;20235;-74
2024/02/21 09:44:38;;;;;;;6.80;4.23;;;;;;;9.28;80.08;100967.28;5038800;28;20895;-74
2024/02/21 09:47:11;;;;;;;10.20;4.13;;;;;;;9.29;79.36;100958.38;5046609;28;20204;-74
2024/02/21 09:49:41;;;;;;;9.33;5.20;;;;;;;9.31;79.30;100961.81;5050222;28;20241;-74
2024/02/21 09:52:08;;;;;;;7.47;4.03;;;;;;;9.36;79.33;100957.94;5045877;28;20233;-74
2024/02/21 09:54:35;;;;;;;6.63;4.53;;;;;;;9.40;78.43;100958.66;5042724;28;20237;-74
2024/02/21 09:57:03;;;;;;;8.33;4.30;;;;;;;9.43;78.36;100962.94;5054224;28;20208;-74
2024/02/21 09:59:31;;;;;;;10.53;3.80;;;;;;;9.50;77.74;100961.66;5044464;28;20267;-74
2024/02/21 10:02:00;;;;;;;8.03;3.53;;;;;;;9.51;77.60;100958.06;5044105;28;20226;-74
2024/02/21 10:04:26;;;;;;;8.60;3.63;;;;;;;9.54;76.92;100955.22;5043042;28;20689;-74
2024/02/21 10:06:55;;;;;;;8.67;3.50;;;;;;;9.58;77.18;100949.69;5039814;28;20202;-74
2024/02/21 10:09:23;;;;;;;9.10;3.70;;;;;;;9.61;76.86;100943.34;5046039;28;20203;-75
2024/02/21 10:11:50;;;;;;;8.67;3.77;;;;;;;9.66;75.56;100946.59;5044875;28;20283;-73
2024/02/21 10:14:17;;;;;;;9.00;3.40;;;;;;;9.69;75.43;100943.75;5045894;28;20209;-74
2024/02/21 10:16:44;;;;;;;6.70;3.03;;;;;;;9.71;74.69;100948.06;5042761;28;20213;-74
2024/02/21 10:19:17;;;;;;;7.60;3.30;;;;;;;9.69;74.52;100936.63;5041373;28;20287;-74
2024/02/21 10:21:44;;;;;;;5.27;3.00;;;;;;;9.75;74.44;100940.78;5041193;28;20783;-75
2024/02/21 10:24:13;;;;;;;6.33;3.37;;;;;;;9.78;74.34;100937.94;5053505;28;20404;-74
2024/02/21 10:26:39;;;;;;;5.07;2.47;;;;;;;9.85;73.73;100934.00;5045081;28;20295;-74
2024/02/21 10:29:06;;;;;;;8.70;3.57;;;;;;;9.89;73.92;100926.69;5049845;28;20217;-75
2024/02/21 10:31:33;;;;;;;6.17;4.67;;;;;;;9.92;73.96;100926.53;5050797;28;20237;-74
2024/02/21 10:34:02;;;;;;;8.10;4.87;;;;;;;10.00;74.11;100913.66;5054835;28;20217;-74
2024/02/21 10:36:29;;;;;;;7.07;3.97;;;;;;;10.05;72.91;100911.56;5041826;28;20240;-74
2024/02/21 10:38:56;;;;;;;6.60;3.07;;;;;;;10.11;73.00;100908.56;5056260;28;20202;-74
2024/02/21 10:41:26;;;;;;;6.70;3.10;;;;;;;10.14;72.19;100904.88;5045073;28;20231;-74
2024/02/21 10:43:55;;;;;;;7.10;3.60;;;;;;;10.17;72.14;100892.25;5053178;28;20206;-74
2024/02/21 10:46:22;;;;;;;6.10;2.50;;;;;;;10.23;71.86;100883.94;5046692;28;20211;-74
2024/02/21 10:49:02;;;;;;;3.87;2.03;;;;;;;10.29;71.60;100875.59;5034970;28;20774;-73
2024/02/21 10:51:35;;;;;;;5.93;2.30;;;;;;;10.34;71.02;100862.03;5042411;28;20243;-74
2024/02/21 10:54:14;;;;;;;3.17;2.37;;;;;;;10.39;70.56;100860.78;5051330;28;20218;-73
2024/02/21 10:56:42;;;;;;;3.50;1.90;;;;;;;10.48;70.37;100874.53;5050948;28;20204;-74
2024/02/21 10:59:09;;;;;;;4.53;2.23;;;;;;;10.49;69.24;100855.78;5058028;28;20206;-74
2024/02/21 11:01:36;;;;;;;6.53;3.23;;;;;;;10.51;68.85;100859.22;5049636;28;20703;-74
2024/02/21 11:04:05;;;;;;;3.97;2.07;;;;;;;10.52;68.81;100857.41;5047457;28;20208;-74
2024/02/21 11:06:33;;;;;;;6.27;2.40;;;;;;;10.57;69.01;100852.69;5046843;28;20696;-74
2024/02/21 11:09:02;;;;;;;5.53;2.23;;;;;;;10.59;68.86;100846.28;5042381;28;20207;-74
2024/02/21 11:11:29;;;;;;;4.77;2.23;;;;;;;10.63;68.46;100854.97;5034341;28;20694;-74
2024/02/21 11:14:06;;;;;;;3.87;2.00;;;;;;;10.65;68.51;100835.28;5051528;28;20207;-74
2024/02/21 11:16:37;;;;;;;3.73;1.73;;;;;;;10.69;68.28;100827.97;5044551;28;20204;-74
2024/02/21 11:19:11;;;;;;;4.27;1.90;;;;;;;10.68;68.08;100827.09;5047068;28;20204;-74